CheckWX is a tool to help pilots better visualize weather data.  It is not intended as a substitute for an official pre-flight weather briefing.

18:31:15 UTC

KMKE METAR
General Mitchell International Airport
Milwaukee, Wisconsin, USA
Current

39 mins ago

KMKE 311752Z 12013KT 10SM FEW050 FEW250 15/03 A3035 RMK AO2 SLP280 T01500028 10150 20106 58012
Observed
May-31 @ 17:52 UTC
Wind
  • 120° at 13 KTS
Visibility
Flight Rules
VFR
Cloud Levels
  • Few at 5,000' AGL
  • Few at 25,000' AGL
Temperature
15°C / 59°F
Dewpoint
C / 37°F
Humidity
45%
Altimeter
30.35" Hg
Pressure
1027.82 hPa
Previous

2 hours ago

KMKE 311652Z 11010KT 10SM FEW250 15/02 A3037 RMK AO2 SLP286 T01500022
Observed
May-31 @ 16:52 UTC
Wind
  • 110° at 10 KTS
Visibility
Flight Rules
VFR
Cloud Levels
  • Few at 25,000' AGL
Temperature
15°C / 59°F
Dewpoint
C / 36°F
Humidity
42%
Altimeter
30.37" Hg
Pressure
1028.42 hPa
Previous

3 hours ago

KMKE 311552Z 14010KT 10SM FEW250 14/01 A3038 RMK AO2 SLP289 T01440011
Observed
May-31 @ 15:52 UTC
Wind
  • 140° at 10 KTS
Visibility
Flight Rules
VFR
Cloud Levels
  • Few at 25,000' AGL
Temperature
14°C / 57°F
Dewpoint
C / 34°F
Humidity
41%
Altimeter
30.38" Hg
Pressure
1028.82 hPa